sensor_id;sensor_type;location;lat;lon;timestamp;temperature;humidity
13148;DHT22;6639;50.956;4.242;2023-08-21T00:01:06;29.50;96.50
13148;DHT22;6639;50.956;4.242;2023-08-21T00:03:33;29.50;96.50
13148;DHT22;6639;50.956;4.242;2023-08-21T00:06:00;29.50;97.00
13148;DHT22;6639;50.956;4.242;2023-08-21T00:08:27;29.50;96.80
13148;DHT22;6639;50.956;4.242;2023-08-21T00:10:55;29.40;96.70
13148;DHT22;6639;50.956;4.242;2023-08-21T00:13:23;29.00;96.80
13148;DHT22;6639;50.956;4.242;2023-08-21T00:15:50;29.10;97.00
13148;DHT22;6639;50.956;4.242;2023-08-21T00:18:17;29.20;97.00
13148;DHT22;6639;50.956;4.242;2023-08-21T00:20:44;29.10;97.10
13148;DHT22;6639;50.956;4.242;2023-08-21T00:23:11;29.10;97.00
13148;DHT22;6639;50.956;4.242;2023-08-21T00:25:38;29.10;97.00
13148;DHT22;6639;50.956;4.242;2023-08-21T00:28:05;29.00;97.20
13148;DHT22;6639;50.956;4.242;2023-08-21T00:30:34;28.80;97.20
13148;DHT22;6639;50.956;4.242;2023-08-21T00:33:00;28.80;97.40
13148;DHT22;6639;50.956;4.242;2023-08-21T00:35:27;28.50;97.20
13148;DHT22;6639;50.956;4.242;2023-08-21T00:37:54;28.60;97.40
13148;DHT22;6639;50.956;4.242;2023-08-21T00:40:21;28.70;97.40
13148;DHT22;6639;50.956;4.242;2023-08-21T00:42:48;28.90;97.40
13148;DHT22;6639;50.956;4.242;2023-08-21T00:45:15;29.00;97.20
13148;DHT22;6639;50.956;4.242;2023-08-21T00:47:43;28.90;97.30
13148;DHT22;6639;50.956;4.242;2023-08-21T00:50:11;29.00;97.10
13148;DHT22;6639;50.956;4.242;2023-08-21T00:52:38;29.10;97.00
13148;DHT22;6639;50.956;4.242;2023-08-21T00:55:07;29.20;97.10
13148;DHT22;6639;50.956;4.242;2023-08-21T00:57:35;29.20;97.50
13148;DHT22;6639;50.956;4.242;2023-08-21T01:00:03;29.20;97.10
13148;DHT22;6639;50.956;4.242;2023-08-21T01:02:31;29.10;97.00
13148;DHT22;6639;50.956;4.242;2023-08-21T01:04:59;29.10;97.00
13148;DHT22;6639;50.956;4.242;2023-08-21T01:07:26;29.30;97.00
13148;DHT22;6639;50.956;4.242;2023-08-21T01:09:58;29.30;97.00
13148;DHT22;6639;50.956;4.242;2023-08-21T01:12:32;29.30;97.10
13148;DHT22;6639;50.956;4.242;2023-08-21T01:15:03;29.10;97.10
13148;DHT22;6639;50.956;4.242;2023-08-21T01:17:33;29.20;97.10
13148;DHT22;6639;50.956;4.242;2023-08-21T01:20:02;29.20;97.10
13148;DHT22;6639;50.956;4.242;2023-08-21T01:22:36;29.10;97.10
13148;DHT22;6639;50.956;4.242;2023-08-21T01:25:04;28.90;97.30
13148;DHT22;6639;50.956;4.242;2023-08-21T01:27:32;28.90;97.40
13148;DHT22;6639;50.956;4.242;2023-08-21T01:30:00;28.90;97.40
13148;DHT22;6639;50.956;4.242;2023-08-21T01:32:35;29.00;97.30
13148;DHT22;6639;50.956;4.242;2023-08-21T01:35:05;28.90;97.30
13148;DHT22;6639;50.956;4.242;2023-08-21T01:37:34;28.70;97.30
13148;DHT22;6639;50.956;4.242;2023-08-21T01:40:00;28.70;97.20
13148;DHT22;6639;50.956;4.242;2023-08-21T01:42:29;28.80;97.10
13148;DHT22;6639;50.956;4.242;2023-08-21T01:44:56;28.80;97.30
13148;DHT22;6639;50.956;4.242;2023-08-21T01:47:23;28.80;97.50
13148;DHT22;6639;50.956;4.242;2023-08-21T01:49:50;28.80;97.50
13148;DHT22;6639;50.956;4.242;2023-08-21T01:52:17;28.90;97.40
13148;DHT22;6639;50.956;4.242;2023-08-21T01:54:44;28.80;97.40
13148;DHT22;6639;50.956;4.242;2023-08-21T01:57:13;28.80;97.60
13148;DHT22;6639;50.956;4.242;2023-08-21T01:59:41;28.70;97.60
13148;DHT22;6639;50.956;4.242;2023-08-21T02:02:08;28.80;97.70
13148;DHT22;6639;50.956;4.242;2023-08-21T02:04:35;28.60;97.80
13148;DHT22;6639;50.956;4.242;2023-08-21T02:07:02;28.50;97.90
13148;DHT22;6639;50.956;4.242;2023-08-21T02:09:29;28.50;97.90
13148;DHT22;6639;50.956;4.242;2023-08-21T02:11:56;28.50;97.90
13148;DHT22;6639;50.956;4.242;2023-08-21T02:14:23;28.50;98.10
13148;DHT22;6639;50.956;4.242;2023-08-21T02:16:51;28.50;98.00
13148;DHT22;6639;50.956;4.242;2023-08-21T02:19:18;28.60;98.10
13148;DHT22;6639;50.956;4.242;2023-08-21T02:21:45;28.60;98.00
13148;DHT22;6639;50.956;4.242;2023-08-21T02:24:11;28.70;98.00
13148;DHT22;6639;50.956;4.242;2023-08-21T02:26:38;28.60;98.00
13148;DHT22;6639;50.956;4.242;2023-08-21T02:29:05;28.60;98.00
13148;DHT22;6639;50.956;4.242;2023-08-21T02:31:32;28.50;97.80
13148;DHT22;6639;50.956;4.242;2023-08-21T02:34:00;28.60;97.80
13148;DHT22;6639;50.956;4.242;2023-08-21T02:36:27;28.60;97.90
13148;DHT22;6639;50.956;4.242;2023-08-21T02:38:55;28.50;97.80
13148;DHT22;6639;50.956;4.242;2023-08-21T02:41:22;28.50;97.80
13148;DHT22;6639;50.956;4.242;2023-08-21T02:43:49;28.40;97.80
13148;DHT22;6639;50.956;4.242;2023-08-21T02:46:16;28.10;98.00
13148;DHT22;6639;50.956;4.242;2023-08-21T02:48:43;28.20;98.10
13148;DHT22;6639;50.956;4.242;2023-08-21T02:51:11;28.30;98.00
13148;DHT22;6639;50.956;4.242;2023-08-21T02:53:38;28.20;98.20
13148;DHT22;6639;50.956;4.242;2023-08-21T02:56:05;28.20;98.20
13148;DHT22;6639;50.956;4.242;2023-08-21T02:58:32;28.20;98.10
13148;DHT22;6639;50.956;4.242;2023-08-21T03:00:59;28.30;98.10
13148;DHT22;6639;50.956;4.242;2023-08-21T03:03:26;28.20;98.10
13148;DHT22;6639;50.956;4.242;2023-08-21T03:05:53;28.20;98.10
13148;DHT22;6639;50.956;4.242;2023-08-21T03:08:21;28.20;98.00
13148;DHT22;6639;50.956;4.242;2023-08-21T03:10:48;28.30;98.00
13148;DHT22;6639;50.956;4.242;2023-08-21T03:13:15;28.30;97.90
13148;DHT22;6639;50.956;4.242;2023-08-21T03:15:41;28.20;98.00
13148;DHT22;6639;50.956;4.242;2023-08-21T03:18:08;28.20;98.10
13148;DHT22;6639;50.956;4.242;2023-08-21T03:20:35;28.10;98.00
13148;DHT22;6639;50.956;4.242;2023-08-21T03:23:02;28.10;97.90
13148;DHT22;6639;50.956;4.242;2023-08-21T03:25:31;28.20;97.90
13148;DHT22;6639;50.956;4.242;2023-08-21T03:27:58;28.20;98.10
13148;DHT22;6639;50.956;4.242;2023-08-21T03:30:24;28.10;98.20
13148;DHT22;6639;50.956;4.242;2023-08-21T03:32:51;27.90;98.30
13148;DHT22;6639;50.956;4.242;2023-08-21T03:35:20;27.90;98.30
13148;DHT22;6639;50.956;4.242;2023-08-21T03:37:47;27.90;98.30
13148;DHT22;6639;50.956;4.242;2023-08-21T03:40:14;27.80;98.40
13148;DHT22;6639;50.956;4.242;2023-08-21T03:42:42;27.80;98.30
13148;DHT22;6639;50.956;4.242;2023-08-21T03:45:09;27.80;98.40
13148;DHT22;6639;50.956;4.242;2023-08-21T03:47:36;27.70;98.50
13148;DHT22;6639;50.956;4.242;2023-08-21T03:50:03;27.70;98.50
13148;DHT22;6639;50.956;4.242;2023-08-21T03:52:30;27.80;98.30
13148;DHT22;6639;50.956;4.242;2023-08-21T03:54:57;27.70;98.50
13148;DHT22;6639;50.956;4.242;2023-08-21T03:57:24;27.70;98.40
13148;DHT22;6639;50.956;4.242;2023-08-21T03:59:52;27.70;98.20
13148;DHT22;6639;50.956;4.242;2023-08-21T04:02:19;27.80;98.30
13148;DHT22;6639;50.956;4.242;2023-08-21T04:04:46;27.70;98.30
13148;DHT22;6639;50.956;4.242;2023-08-21T04:07:13;27.70;98.30
13148;DHT22;6639;50.956;4.242;2023-08-21T04:09:40;27.70;98.40
13148;DHT22;6639;50.956;4.242;2023-08-21T04:12:07;27.70;98.40
13148;DHT22;6639;50.956;4.242;2023-08-21T04:14:34;27.70;98.30
13148;DHT22;6639;50.956;4.242;2023-08-21T04:17:03;27.60;98.50
13148;DHT22;6639;50.956;4.242;2023-08-21T04:19:30;27.50;98.70
13148;DHT22;6639;50.956;4.242;2023-08-21T04:21:59;27.40;98.80
13148;DHT22;6639;50.956;4.242;2023-08-21T04:24:26;27.50;98.70
13148;DHT22;6639;50.956;4.242;2023-08-21T04:26:53;27.50;98.60
13148;DHT22;6639;50.956;4.242;2023-08-21T04:29:19;27.50;98.60
13148;DHT22;6639;50.956;4.242;2023-08-21T04:31:46;27.50;98.50
13148;DHT22;6639;50.956;4.242;2023-08-21T04:34:15;27.50;98.40
13148;DHT22;6639;50.956;4.242;2023-08-21T04:36:43;27.60;98.40
13148;DHT22;6639;50.956;4.242;2023-08-21T04:39:10;27.60;98.40
13148;DHT22;6639;50.956;4.242;2023-08-21T04:41:37;27.50;98.30
13148;DHT22;6639;50.956;4.242;2023-08-21T04:44:05;27.50;98.40
13148;DHT22;6639;50.956;4.242;2023-08-21T04:46:32;27.50;98.40
13148;DHT22;6639;50.956;4.242;2023-08-21T04:48:59;27.40;98.40
13148;DHT22;6639;50.956;4.242;2023-08-21T04:51:28;27.40;98.60
13148;DHT22;6639;50.956;4.242;2023-08-21T04:53:54;27.30;98.60
13148;DHT22;6639;50.956;4.242;2023-08-21T04:56:21;27.30;98.50
13148;DHT22;6639;50.956;4.242;2023-08-21T04:58:48;27.40;98.50
13148;DHT22;6639;50.956;4.242;2023-08-21T05:01:15;27.40;98.50
13148;DHT22;6639;50.956;4.242;2023-08-21T05:03:42;27.40;98.40
13148;DHT22;6639;50.956;4.242;2023-08-21T05:06:09;27.40;98.80
13148;DHT22;6639;50.956;4.242;2023-08-21T05:08:37;27.40;98.50
13148;DHT22;6639;50.956;4.242;2023-08-21T05:11:04;27.40;98.50
13148;DHT22;6639;50.956;4.242;2023-08-21T05:13:31;27.50;98.60
13148;DHT22;6639;50.956;4.242;2023-08-21T05:15:58;27.40;98.60
13148;DHT22;6639;50.956;4.242;2023-08-21T05:18:25;27.30;98.90
13148;DHT22;6639;50.956;4.242;2023-08-21T05:20:55;27.40;98.90
13148;DHT22;6639;50.956;4.242;2023-08-21T05:23:22;27.40;99.00
13148;DHT22;6639;50.956;4.242;2023-08-21T05:25:51;27.40;98.90
13148;DHT22;6639;50.956;4.242;2023-08-21T05:28:17;27.40;98.90
13148;DHT22;6639;50.956;4.242;2023-08-21T05:30:46;27.40;99.00
13148;DHT22;6639;50.956;4.242;2023-08-21T05:33:14;27.40;99.20
13148;DHT22;6639;50.956;4.242;2023-08-21T05:35:41;27.50;99.10
13148;DHT22;6639;50.956;4.242;2023-08-21T05:38:08;27.50;98.90
13148;DHT22;6639;50.956;4.242;2023-08-21T05:40:35;27.70;99.10
13148;DHT22;6639;50.956;4.242;2023-08-21T05:43:03;27.90;99.00
13148;DHT22;6639;50.956;4.242;2023-08-21T05:45:30;28.00;99.00
13148;DHT22;6639;50.956;4.242;2023-08-21T05:47:57;28.10;98.90
13148;DHT22;6639;50.956;4.242;2023-08-21T05:50:24;28.20;98.70
13148;DHT22;6639;50.956;4.242;2023-08-21T05:52:51;28.30;98.30
13148;DHT22;6639;50.956;4.242;2023-08-21T05:55:20;28.30;98.30
13148;DHT22;6639;50.956;4.242;2023-08-21T05:57:47;28.30;98.20
13148;DHT22;6639;50.956;4.242;2023-08-21T06:00:16;28.30;98.00
13148;DHT22;6639;50.956;4.242;2023-08-21T06:02:43;28.50;98.20
13148;DHT22;6639;50.956;4.242;2023-08-21T06:05:10;28.50;97.80
13148;DHT22;6639;50.956;4.242;2023-08-21T06:07:37;28.60;98.00
13148;DHT22;6639;50.956;4.242;2023-08-21T06:10:06;28.70;98.10
13148;DHT22;6639;50.956;4.242;2023-08-21T06:12:33;28.80;98.00
13148;DHT22;6639;50.956;4.242;2023-08-21T06:15:00;29.10;97.80
13148;DHT22;6639;50.956;4.242;2023-08-21T06:17:29;29.40;97.60
13148;DHT22;6639;50.956;4.242;2023-08-21T06:19:56;29.40;97.50
13148;DHT22;6639;50.956;4.242;2023-08-21T06:22:23;29.80;97.10
13148;DHT22;6639;50.956;4.242;2023-08-21T06:24:50;30.00;96.60
13148;DHT22;6639;50.956;4.242;2023-08-21T06:27:17;30.10;96.60
13148;DHT22;6639;50.956;4.242;2023-08-21T06:29:44;30.40;96.40
13148;DHT22;6639;50.956;4.242;2023-08-21T06:32:11;30.70;96.10
13148;DHT22;6639;50.956;4.242;2023-08-21T06:34:39;31.00;95.80
13148;DHT22;6639;50.956;4.242;2023-08-21T06:37:06;31.10;95.50
13148;DHT22;6639;50.956;4.242;2023-08-21T06:39:34;31.20;95.70
13148;DHT22;6639;50.956;4.242;2023-08-21T06:42:01;31.70;95.10
13148;DHT22;6639;50.956;4.242;2023-08-21T06:44:28;31.90;95.00
13148;DHT22;6639;50.956;4.242;2023-08-21T06:46:55;32.20;94.70
13148;DHT22;6639;50.956;4.242;2023-08-21T06:49:21;32.60;94.30
13148;DHT22;6639;50.956;4.242;2023-08-21T06:51:50;33.00;94.10
13148;DHT22;6639;50.956;4.242;2023-08-21T06:54:17;33.30;93.90
13148;DHT22;6639;50.956;4.242;2023-08-21T06:56:44;33.50;93.60
13148;DHT22;6639;50.956;4.242;2023-08-21T06:59:11;33.60;93.20
13148;DHT22;6639;50.956;4.242;2023-08-21T07:01:38;33.90;93.30
13148;DHT22;6639;50.956;4.242;2023-08-21T07:04:05;34.00;93.30
13148;DHT22;6639;50.956;4.242;2023-08-21T07:06:32;34.30;92.70
13148;DHT22;6639;50.956;4.242;2023-08-21T07:09:00;34.50;92.40
13148;DHT22;6639;50.956;4.242;2023-08-21T07:11:27;34.60;92.80
13148;DHT22;6639;50.956;4.242;2023-08-21T07:13:54;34.90;92.30
13148;DHT22;6639;50.956;4.242;2023-08-21T07:16:21;35.20;92.10
13148;DHT22;6639;50.956;4.242;2023-08-21T07:18:48;35.30;91.90
13148;DHT22;6639;50.956;4.242;2023-08-21T07:21:15;35.50;91.60
13148;DHT22;6639;50.956;4.242;2023-08-21T07:23:42;35.50;91.60
13148;DHT22;6639;50.956;4.242;2023-08-21T07:26:10;35.40;91.60
13148;DHT22;6639;50.956;4.242;2023-08-21T07:28:37;35.60;91.80
13148;DHT22;6639;50.956;4.242;2023-08-21T07:31:04;35.90;91.20
13148;DHT22;6639;50.956;4.242;2023-08-21T07:33:31;36.00;91.20
13148;DHT22;6639;50.956;4.242;2023-08-21T07:35:59;36.20;91.20
13148;DHT22;6639;50.956;4.242;2023-08-21T07:38:26;36.30;90.70
13148;DHT22;6639;50.956;4.242;2023-08-21T07:41:02;36.30;90.90
13148;DHT22;6639;50.956;4.242;2023-08-21T07:43:31;36.40;91.20
13148;DHT22;6639;50.956;4.242;2023-08-21T07:46:01;36.40;91.00
13148;DHT22;6639;50.956;4.242;2023-08-21T07:48:28;36.80;90.50
13148;DHT22;6639;50.956;4.242;2023-08-21T07:50:55;37.00;90.10
13148;DHT22;6639;50.956;4.242;2023-08-21T07:53:22;36.40;90.60
13148;DHT22;6639;50.956;4.242;2023-08-21T07:55:49;36.50;91.00
13148;DHT22;6639;50.956;4.242;2023-08-21T07:58:16;36.90;90.60
13148;DHT22;6639;50.956;4.242;2023-08-21T08:00:45;37.10;90.60
13148;DHT22;6639;50.956;4.242;2023-08-21T08:03:14;37.10;90.20
13148;DHT22;6639;50.956;4.242;2023-08-21T08:05:41;37.40;90.00
13148;DHT22;6639;50.956;4.242;2023-08-21T08:08:08;37.60;90.00
13148;DHT22;6639;50.956;4.242;2023-08-21T08:10:37;37.70;89.60
13148;DHT22;6639;50.956;4.242;2023-08-21T08:13:05;37.50;89.20
13148;DHT22;6639;50.956;4.242;2023-08-21T08:15:32;37.70;87.90
13148;DHT22;6639;50.956;4.242;2023-08-21T08:18:02;37.10;88.90
13148;DHT22;6639;50.956;4.242;2023-08-21T08:20:30;37.00;88.60
13148;DHT22;6639;50.956;4.242;2023-08-21T08:22:57;36.70;87.90
13148;DHT22;6639;50.956;4.242;2023-08-21T08:25:23;36.40;88.90
13148;DHT22;6639;50.956;4.242;2023-08-21T08:27:51;35.70;90.00
13148;DHT22;6639;50.956;4.242;2023-08-21T08:30:18;35.30;90.30
13148;DHT22;6639;50.956;4.242;2023-08-21T08:32:45;35.10;90.70
13148;DHT22;6639;50.956;4.242;2023-08-21T08:35:14;34.80;91.10
13148;DHT22;6639;50.956;4.242;2023-08-21T08:37:41;34.70;91.10
13148;DHT22;6639;50.956;4.242;2023-08-21T08:40:09;34.90;91.10
13148;DHT22;6639;50.956;4.242;2023-08-21T08:42:37;34.70;91.80
13148;DHT22;6639;50.956;4.242;2023-08-21T08:45:05;35.00;92.10
13148;DHT22;6639;50.956;4.242;2023-08-21T08:47:32;35.30;91.10
13148;DHT22;6639;50.956;4.242;2023-08-21T08:50:01;35.50;91.20
13148;DHT22;6639;50.956;4.242;2023-08-21T08:52:34;35.80;90.20
13148;DHT22;6639;50.956;4.242;2023-08-21T08:55:02;36.30;90.50
13148;DHT22;6639;50.956;4.242;2023-08-21T08:57:29;36.60;91.10
13148;DHT22;6639;50.956;4.242;2023-08-21T08:59:56;36.70;90.60
13148;DHT22;6639;50.956;4.242;2023-08-21T09:02:25;36.90;89.10
13148;DHT22;6639;50.956;4.242;2023-08-21T09:04:52;37.00;89.10
13148;DHT22;6639;50.956;4.242;2023-08-21T09:07:20;37.10;88.70
13148;DHT22;6639;50.956;4.242;2023-08-21T09:09:49;37.00;88.70
13148;DHT22;6639;50.956;4.242;2023-08-21T09:12:18;37.20;87.60
13148;DHT22;6639;50.956;4.242;2023-08-21T09:14:45;37.30;86.80
13148;DHT22;6639;50.956;4.242;2023-08-21T09:17:13;37.80;86.00
13148;DHT22;6639;50.956;4.242;2023-08-21T09:19:40;38.00;86.20
13148;DHT22;6639;50.956;4.242;2023-08-21T09:22:11;38.00;84.20
13148;DHT22;6639;50.956;4.242;2023-08-21T09:24:38;38.10;84.60
13148;DHT22;6639;50.956;4.242;2023-08-21T09:27:13;38.30;83.70
13148;DHT22;6639;50.956;4.242;2023-08-21T09:29:41;38.40;84.00
13148;DHT22;6639;50.956;4.242;2023-08-21T09:32:09;38.40;84.50
13148;DHT22;6639;50.956;4.242;2023-08-21T09:34:36;38.30;83.70
13148;DHT22;6639;50.956;4.242;2023-08-21T09:37:07;38.10;83.00
13148;DHT22;6639;50.956;4.242;2023-08-21T09:39:34;37.80;80.90
13148;DHT22;6639;50.956;4.242;2023-08-21T09:42:05;37.90;81.80
13148;DHT22;6639;50.956;4.242;2023-08-21T09:44:37;37.40;83.60
13148;DHT22;6639;50.956;4.242;2023-08-21T09:47:07;37.20;85.90
13148;DHT22;6639;50.956;4.242;2023-08-21T09:49:35;37.30;85.10
13148;DHT22;6639;50.956;4.242;2023-08-21T09:52:04;37.40;84.60
13148;DHT22;6639;50.956;4.242;2023-08-21T09:54:32;37.90;82.60
13148;DHT22;6639;50.956;4.242;2023-08-21T09:57:02;38.10;81.10
13148;DHT22;6639;50.956;4.242;2023-08-21T09:59:29;38.10;81.10
13148;DHT22;6639;50.956;4.242;2023-08-21T10:01:58;38.20;81.30
13148;DHT22;6639;50.956;4.242;2023-08-21T10:04:28;38.10;81.20
13148;DHT22;6639;50.956;4.242;2023-08-21T10:06:56;38.30;83.60
13148;DHT22;6639;50.956;4.242;2023-08-21T10:09:24;38.70;82.10
13148;DHT22;6639;50.956;4.242;2023-08-21T10:11:52;38.70;83.50
13148;DHT22;6639;50.956;4.242;2023-08-21T10:14:21;38.60;80.40
13148;DHT22;6639;50.956;4.242;2023-08-21T10:16:50;38.50;80.60
13148;DHT22;6639;50.956;4.242;2023-08-21T10:19:19;38.40;79.90
13148;DHT22;6639;50.956;4.242;2023-08-21T10:21:47;38.00;78.40
13148;DHT22;6639;50.956;4.242;2023-08-21T10:24:26;38.20;79.00
13148;DHT22;6639;50.956;4.242;2023-08-21T10:26:57;38.60;79.10
13148;DHT22;6639;50.956;4.242;2023-08-21T10:29:24;39.00;79.60
13148;DHT22;6639;50.956;4.242;2023-08-21T10:31:59;39.10;77.50
13148;DHT22;6639;50.956;4.242;2023-08-21T10:34:33;38.80;75.90
13148;DHT22;6639;50.956;4.242;2023-08-21T10:37:09;38.60;79.00
13148;DHT22;6639;50.956;4.242;2023-08-21T10:39:38;38.20;78.00
13148;DHT22;6639;50.956;4.242;2023-08-21T10:42:07;38.40;78.70
13148;DHT22;6639;50.956;4.242;2023-08-21T10:44:48;38.70;76.70
13148;DHT22;6639;50.956;4.242;2023-08-21T10:47:18;38.80;76.80
13148;DHT22;6639;50.956;4.242;2023-08-21T10:49:49;38.50;75.70
13148;DHT22;6639;50.956;4.242;2023-08-21T10:52:20;38.70;77.80
13148;DHT22;6639;50.956;4.242;2023-08-21T10:54:49;39.20;78.50
13148;DHT22;6639;50.956;4.242;2023-08-21T10:57:16;39.60;75.40
13148;DHT22;6639;50.956;4.242;2023-08-21T10:59:55;39.20;74.00
13148;DHT22;6639;50.956;4.242;2023-08-21T11:02:23;38.90;74.20
13148;DHT22;6639;50.956;4.242;2023-08-21T11:04:53;38.50;72.50
13148;DHT22;6639;50.956;4.242;2023-08-21T11:07:20;38.80;75.50
13148;DHT22;6639;50.956;4.242;2023-08-21T11:09:47;39.00;74.60
13148;DHT22;6639;50.956;4.242;2023-08-21T11:12:16;38.50;74.20
13148;DHT22;6639;50.956;4.242;2023-08-21T11:14:44;38.40;76.40
13148;DHT22;6639;50.956;4.242;2023-08-21T11:17:11;38.60;76.80
13148;DHT22;6639;50.956;4.242;2023-08-21T11:19:39;39.00;75.10
13148;DHT22;6639;50.956;4.242;2023-08-21T11:22:08;39.30;76.30
13148;DHT22;6639;50.956;4.242;2023-08-21T11:24:40;39.50;75.10
13148;DHT22;6639;50.956;4.242;2023-08-21T11:27:08;39.40;76.00
13148;DHT22;6639;50.956;4.242;2023-08-21T11:29:39;39.00;70.60
13148;DHT22;6639;50.956;4.242;2023-08-21T11:32:12;39.00;74.10
13148;DHT22;6639;50.956;4.242;2023-08-21T11:34:40;38.60;74.10
13148;DHT22;6639;50.956;4.242;2023-08-21T11:37:08;38.60;75.30
13148;DHT22;6639;50.956;4.242;2023-08-21T11:39:42;38.80;76.40
13148;DHT22;6639;50.956;4.242;2023-08-21T11:42:10;38.60;75.40
13148;DHT22;6639;50.956;4.242;2023-08-21T11:44:45;38.70;74.40
13148;DHT22;6639;50.956;4.242;2023-08-21T11:47:13;38.60;73.90
13148;DHT22;6639;50.956;4.242;2023-08-21T11:49:41;38.50;73.90
13148;DHT22;6639;50.956;4.242;2023-08-21T11:52:11;38.30;75.10
13148;DHT22;6639;50.956;4.242;2023-08-21T11:54:39;38.40;76.80
13148;DHT22;6639;50.956;4.242;2023-08-21T11:57:08;38.30;74.50
13148;DHT22;6639;50.956;4.242;2023-08-21T11:59:35;38.10;76.20
13148;DHT22;6639;50.956;4.242;2023-08-21T12:02:09;38.10;74.70
13148;DHT22;6639;50.956;4.242;2023-08-21T12:04:36;38.50;77.00
13148;DHT22;6639;50.956;4.242;2023-08-21T12:07:03;37.80;75.20
13148;DHT22;6639;50.956;4.242;2023-08-21T12:09:32;37.80;76.10
13148;DHT22;6639;50.956;4.242;2023-08-21T12:11:59;37.80;77.00
13148;DHT22;6639;50.956;4.242;2023-08-21T12:14:28;38.10;75.20
13148;DHT22;6639;50.956;4.242;2023-08-21T12:16:55;37.90;75.10
13148;DHT22;6639;50.956;4.242;2023-08-21T12:19:23;37.90;73.50
13148;DHT22;6639;50.956;4.242;2023-08-21T12:21:50;38.10;73.80
13148;DHT22;6639;50.956;4.242;2023-08-21T12:24:17;38.20;75.50
13148;DHT22;6639;50.956;4.242;2023-08-21T12:26:45;38.20;74.40
13148;DHT22;6639;50.956;4.242;2023-08-21T12:29:12;38.10;71.60
13148;DHT22;6639;50.956;4.242;2023-08-21T12:31:39;38.10;73.00
13148;DHT22;6639;50.956;4.242;2023-08-21T12:34:06;38.20;71.80
13148;DHT22;6639;50.956;4.242;2023-08-21T12:36:34;38.00;73.60
13148;DHT22;6639;50.956;4.242;2023-08-21T12:39:02;38.20;72.50
13148;DHT22;6639;50.956;4.242;2023-08-21T12:41:29;38.10;73.70
13148;DHT22;6639;50.956;4.242;2023-08-21T12:43:57;38.10;71.70
13148;DHT22;6639;50.956;4.242;2023-08-21T12:46:24;38.00;71.00
13148;DHT22;6639;50.956;4.242;2023-08-21T12:48:53;38.30;73.20
13148;DHT22;6639;50.956;4.242;2023-08-21T12:51:19;37.90;72.40
13148;DHT22;6639;50.956;4.242;2023-08-21T12:53:46;37.70;71.80
13148;DHT22;6639;50.956;4.242;2023-08-21T12:56:13;37.80;74.30
13148;DHT22;6639;50.956;4.242;2023-08-21T12:58:40;38.00;73.50
13148;DHT22;6639;50.956;4.242;2023-08-21T13:01:08;38.00;74.20
13148;DHT22;6639;50.956;4.242;2023-08-21T13:03:35;38.20;74.70
13148;DHT22;6639;50.956;4.242;2023-08-21T13:06:02;37.70;71.80
13148;DHT22;6639;50.956;4.242;2023-08-21T13:08:30;37.80;73.70
13148;DHT22;6639;50.956;4.242;2023-08-21T13:10:57;37.80;73.80
13148;DHT22;6639;50.956;4.242;2023-08-21T13:13:23;37.70;72.40
13148;DHT22;6639;50.956;4.242;2023-08-21T13:15:50;37.90;72.10
13148;DHT22;6639;50.956;4.242;2023-08-21T13:18:20;37.90;71.70
13148;DHT22;6639;50.956;4.242;2023-08-21T13:20:47;37.80;72.40
13148;DHT22;6639;50.956;4.242;2023-08-21T13:23:14;38.20;72.50
13148;DHT22;6639;50.956;4.242;2023-08-21T13:25:41;38.20;70.60
13148;DHT22;6639;50.956;4.242;2023-08-21T13:28:08;38.30;70.90
13148;DHT22;6639;50.956;4.242;2023-08-21T13:30:36;38.50;72.30
13148;DHT22;6639;50.956;4.242;2023-08-21T13:33:04;38.60;69.90
13148;DHT22;6639;50.956;4.242;2023-08-21T13:35:33;38.40;70.60
13148;DHT22;6639;50.956;4.242;2023-08-21T13:38:00;38.60;71.50
13148;DHT22;6639;50.956;4.242;2023-08-21T13:40:27;38.60;70.50
13148;DHT22;6639;50.956;4.242;2023-08-21T13:42:54;38.60;71.40
13148;DHT22;6639;50.956;4.242;2023-08-21T13:45:23;38.50;70.90
13148;DHT22;6639;50.956;4.242;2023-08-21T13:47:50;38.60;70.10
13148;DHT22;6639;50.956;4.242;2023-08-21T13:50:19;38.70;71.80
13148;DHT22;6639;50.956;4.242;2023-08-21T13:52:47;38.60;68.80
13148;DHT22;6639;50.956;4.242;2023-08-21T13:55:15;38.40;69.60
13148;DHT22;6639;50.956;4.242;2023-08-21T13:57:42;38.30;69.20
13148;DHT22;6639;50.956;4.242;2023-08-21T14:00:10;38.10;69.70
13148;DHT22;6639;50.956;4.242;2023-08-21T14:02:39;38.20;69.40
13148;DHT22;6639;50.956;4.242;2023-08-21T14:05:07;38.40;70.80
13148;DHT22;6639;50.956;4.242;2023-08-21T14:07:35;38.40;69.90
13148;DHT22;6639;50.956;4.242;2023-08-21T14:10:04;38.40;70.40
13148;DHT22;6639;50.956;4.242;2023-08-21T14:12:31;38.50;71.60
13148;DHT22;6639;50.956;4.242;2023-08-21T14:14:59;38.20;69.80
13148;DHT22;6639;50.956;4.242;2023-08-21T14:17:26;38.10;69.20
13148;DHT22;6639;50.956;4.242;2023-08-21T14:19:53;38.50;70.60
13148;DHT22;6639;50.956;4.242;2023-08-21T14:22:20;38.60;69.90
13148;DHT22;6639;50.956;4.242;2023-08-21T14:24:47;38.50;70.90
13148;DHT22;6639;50.956;4.242;2023-08-21T14:27:15;38.50;68.00
13148;DHT22;6639;50.956;4.242;2023-08-21T14:29:42;38.50;69.30
13148;DHT22;6639;50.956;4.242;2023-08-21T14:32:10;38.50;69.10
13148;DHT22;6639;50.956;4.242;2023-08-21T14:34:37;38.60;69.40
13148;DHT22;6639;50.956;4.242;2023-08-21T14:37:04;38.70;68.90
13148;DHT22;6639;50.956;4.242;2023-08-21T14:39:31;38.40;68.20
13148;DHT22;6639;50.956;4.242;2023-08-21T14:41:58;37.80;68.40
13148;DHT22;6639;50.956;4.242;2023-08-21T14:44:28;38.10;69.40
13148;DHT22;6639;50.956;4.242;2023-08-21T14:46:55;38.20;67.40
13148;DHT22;6639;50.956;4.242;2023-08-21T14:49:24;38.30;68.10
13148;DHT22;6639;50.956;4.242;2023-08-21T14:51:51;38.30;67.50
13148;DHT22;6639;50.956;4.242;2023-08-21T14:54:18;38.20;69.00
13148;DHT22;6639;50.956;4.242;2023-08-21T14:56:45;38.00;68.80
13148;DHT22;6639;50.956;4.242;2023-08-21T14:59:12;37.90;67.00
13148;DHT22;6639;50.956;4.242;2023-08-21T15:01:41;38.00;66.90
13148;DHT22;6639;50.956;4.242;2023-08-21T15:04:08;38.30;65.20
13148;DHT22;6639;50.956;4.242;2023-08-21T15:06:37;38.40;63.60
13148;DHT22;6639;50.956;4.242;2023-08-21T15:09:05;38.20;64.90
13148;DHT22;6639;50.956;4.242;2023-08-21T15:11:32;38.10;65.10
13148;DHT22;6639;50.956;4.242;2023-08-21T15:14:01;36.80;66.60
13148;DHT22;6639;50.956;4.242;2023-08-21T15:16:28;36.60;67.60
13148;DHT22;6639;50.956;4.242;2023-08-21T15:18:56;36.80;70.00
13148;DHT22;6639;50.956;4.242;2023-08-21T15:21:24;36.70;67.50
13148;DHT22;6639;50.956;4.242;2023-08-21T15:23:51;37.10;69.60
13148;DHT22;6639;50.956;4.242;2023-08-21T15:26:18;37.30;68.80
13148;DHT22;6639;50.956;4.242;2023-08-21T15:28:45;37.30;68.20
13148;DHT22;6639;50.956;4.242;2023-08-21T15:31:12;37.40;68.00
13148;DHT22;6639;50.956;4.242;2023-08-21T15:33:39;37.50;69.00
13148;DHT22;6639;50.956;4.242;2023-08-21T15:36:07;37.50;68.30
13148;DHT22;6639;50.956;4.242;2023-08-21T15:38:34;37.50;68.40
13148;DHT22;6639;50.956;4.242;2023-08-21T15:41:01;37.40;68.00
13148;DHT22;6639;50.956;4.242;2023-08-21T15:43:28;37.40;68.00
13148;DHT22;6639;50.956;4.242;2023-08-21T15:45:55;36.80;67.00
13148;DHT22;6639;50.956;4.242;2023-08-21T15:48:22;36.50;67.30